createdAt,value
2022-11-09T00:01:25.159Z,6.90
2022-11-09T00:03:57.509Z,6.90
2022-11-09T00:06:25.779Z,6.90
2022-11-09T00:08:55.474Z,6.90
2022-11-09T00:11:24.176Z,6.90
2022-11-09T00:13:52.477Z,6.90
2022-11-09T00:16:22.511Z,6.90
2022-11-09T00:18:51.948Z,6.90
2022-11-09T00:21:21.522Z,6.90
2022-11-09T00:23:50.068Z,6.90
2022-11-09T00:26:20.842Z,6.90
2022-11-09T00:28:49.241Z,6.80
2022-11-09T00:31:19.311Z,6.90
2022-11-09T00:33:50.595Z,6.90
2022-11-09T00:36:20.044Z,6.80
2022-11-09T00:38:51.878Z,6.90
2022-11-09T00:41:22.447Z,6.90
2022-11-09T00:43:51.614Z,6.90
2022-11-09T00:46:20.970Z,6.90
2022-11-09T00:48:49.471Z,6.90
2022-11-09T00:51:18.672Z,6.80
2022-11-09T00:53:48.482Z,6.80
2022-11-09T00:56:16.772Z,6.70
2022-11-09T00:58:46.386Z,6.70
2022-11-09T01:01:17.183Z,6.60
2022-11-09T01:03:46.675Z,6.60
2022-11-09T01:06:17.921Z,6.60
2022-11-09T01:08:47.242Z,6.50
2022-11-09T01:11:16.163Z,6.50
2022-11-09T01:13:46.526Z,6.40
2022-11-09T01:16:16.792Z,6.30
2022-11-09T01:18:45.184Z,6.40
2022-11-09T01:21:15.472Z,6.40
2022-11-09T01:23:44.710Z,6.40
2022-11-09T01:26:15.052Z,6.40
2022-11-09T01:28:45.618Z,6.40
2022-11-09T01:31:15.966Z,6.40
2022-11-09T01:33:44.791Z,6.40
2022-11-09T01:36:14.527Z,6.40
2022-11-09T01:38:43.134Z,6.40
2022-11-09T01:41:14.877Z,6.50
2022-11-09T01:43:43.283Z,6.40
2022-11-09T01:46:20.279Z,6.40
2022-11-09T01:48:53.734Z,6.50
2022-11-09T01:51:27.855Z,6.40
2022-11-09T01:54:00.471Z,6.40
2022-11-09T01:56:30.258Z,6.40
2022-11-09T01:59:03.958Z,6.40
2022-11-09T02:01:34.416Z,6.50
2022-11-09T02:04:06.933Z,6.40
2022-11-09T02:06:36.203Z,6.50
2022-11-09T02:09:09.344Z,6.60
2022-11-09T02:11:38.969Z,6.60
2022-11-09T02:14:08.436Z,6.70
2022-11-09T02:16:38.954Z,6.70
2022-11-09T02:19:07.553Z,6.60
2022-11-09T02:21:37.292Z,6.70
2022-11-09T02:24:06.281Z,6.70
2022-11-09T02:26:40.132Z,6.70
2022-11-09T02:29:11.130Z,6.70
2022-11-09T02:31:45.091Z,6.80
2022-11-09T02:34:16.605Z,6.80
2022-11-09T02:36:46.282Z,6.70
2022-11-09T02:39:17.760Z,6.60
2022-11-09T02:41:54.799Z,6.60
2022-11-09T02:44:25.002Z,6.50
2022-11-09T02:46:53.346Z,6.50
2022-11-09T02:49:21.540Z,6.50
2022-11-09T02:51:51.183Z,6.50
2022-11-09T02:54:19.437Z,6.60
2022-11-09T02:56:47.598Z,6.50
2022-11-09T02:59:15.890Z,6.60
2022-11-09T03:01:44.129Z,6.70
2022-11-09T03:04:12.505Z,6.70
2022-11-09T03:06:40.933Z,6.80
2022-11-09T03:09:12.442Z,6.80
2022-11-09T03:11:41.497Z,6.80
2022-11-09T03:14:10.738Z,6.80
2022-11-09T03:16:40.150Z,6.90
2022-11-09T03:19:08.972Z,6.90
2022-11-09T03:21:37.693Z,7.00
2022-11-09T03:24:06.797Z,7.00
2022-11-09T03:26:36.583Z,7.10
2022-11-09T03:29:04.798Z,7.10
2022-11-09T03:31:32.908Z,7.10
2022-11-09T03:34:01.497Z,7.10
2022-11-09T03:36:29.674Z,7.10
2022-11-09T03:38:58.124Z,7.20
2022-11-09T03:41:26.318Z,7.20
2022-11-09T03:43:56.138Z,7.20
2022-11-09T03:46:24.395Z,7.20
2022-11-09T03:48:52.654Z,7.20
2022-11-09T03:51:21.172Z,7.20
2022-11-09T03:53:49.483Z,7.10
2022-11-09T03:56:18.938Z,7.10
2022-11-09T03:58:47.359Z,7.10
2022-11-09T04:01:17.367Z,7.10
2022-11-09T04:03:45.658Z,7.10
2022-11-09T04:06:16.852Z,7.10
2022-11-09T04:08:50.929Z,7.00
2022-11-09T04:11:20.094Z,7.00
2022-11-09T04:13:48.577Z,7.00
2022-11-09T04:16:18.335Z,7.00
2022-11-09T04:18:47.257Z,7.00
2022-11-09T04:21:17.178Z,7.00
2022-11-09T04:23:49.647Z,7.00
2022-11-09T04:26:18.222Z,7.00
2022-11-09T04:28:46.387Z,7.00
2022-11-09T04:31:15.053Z,7.00
2022-11-09T04:33:46.180Z,7.00
2022-11-09T04:36:14.782Z,7.00
2022-11-09T04:38:42.960Z,7.00
2022-11-09T04:41:15.085Z,7.00
2022-11-09T04:43:43.607Z,7.00
2022-11-09T04:46:12.151Z,7.00
2022-11-09T04:48:41.534Z,7.00
2022-11-09T04:51:13.574Z,7.00
2022-11-09T04:53:41.825Z,7.00
2022-11-09T04:56:10.998Z,7.00
2022-11-09T04:58:39.754Z,7.00
2022-11-09T05:01:11.539Z,7.10
2022-11-09T05:06:24.277Z,7.10
2022-11-09T05:08:52.844Z,7.10
2022-11-09T05:11:21.262Z,7.00
2022-11-09T05:13:51.397Z,7.00
2022-11-09T05:16:20.051Z,7.00
2022-11-09T05:18:49.799Z,7.00
2022-11-09T05:21:19.904Z,7.10
2022-11-09T05:23:59.935Z,7.10
2022-11-09T05:26:30.237Z,7.10
2022-11-09T05:28:59.255Z,7.10
2022-11-09T05:31:28.547Z,7.20
2022-11-09T05:33:57.671Z,7.10
2022-11-09T05:36:28.707Z,7.10
2022-11-09T05:41:25.828Z,7.20
2022-11-09T05:43:54.302Z,7.20
2022-11-09T05:46:22.540Z,7.30
2022-11-09T05:48:51.087Z,7.30
2022-11-09T05:51:19.439Z,7.40
2022-11-09T05:53:49.305Z,7.40
2022-11-09T05:56:17.853Z,7.40
2022-11-09T05:58:46.007Z,7.40
2022-11-09T06:01:15.826Z,7.50
2022-11-09T06:03:44.517Z,7.50
2022-11-09T06:06:15.002Z,7.50
2022-11-09T06:08:43.744Z,7.50
2022-11-09T06:11:23.143Z,7.50
2022-11-09T06:13:53.021Z,7.50
2022-11-09T06:16:21.672Z,7.60
2022-11-09T06:18:50.033Z,7.50
2022-11-09T06:21:18.325Z,7.50
2022-11-09T06:23:46.629Z,7.40
2022-11-09T06:26:16.262Z,7.40
2022-11-09T06:28:44.446Z,7.40
2022-11-09T06:31:15.562Z,7.30
2022-11-09T06:33:44.009Z,7.30
2022-11-09T06:36:12.943Z,7.30
2022-11-09T06:38:41.566Z,7.30
2022-11-09T06:41:11.221Z,7.30
2022-11-09T06:43:40.851Z,7.30
2022-11-09T06:46:11.012Z,7.40
2022-11-09T06:48:39.992Z,7.40
2022-11-09T06:51:08.760Z,7.40
2022-11-09T06:53:38.099Z,7.40
2022-11-09T06:56:07.202Z,7.50
2022-11-09T06:58:36.020Z,7.50
2022-11-09T07:01:10.383Z,7.50
2022-11-09T07:03:39.801Z,7.60
2022-11-09T07:06:09.554Z,7.70
2022-11-09T07:08:38.448Z,7.80
2022-11-09T07:11:07.981Z,7.90
2022-11-09T07:13:36.381Z,8.00
2022-11-09T07:16:04.875Z,8.00
2022-11-09T07:18:34.899Z,8.10
2022-11-09T07:21:08.889Z,8.20
2022-11-09T07:23:41.766Z,8.20
2022-11-09T07:26:10.430Z,8.30
2022-11-09T07:28:38.699Z,8.30
2022-11-09T07:31:07.253Z,8.30
2022-11-09T07:33:36.895Z,8.20
2022-11-09T07:36:08.199Z,8.20
2022-11-09T07:38:36.479Z,8.20
2022-11-09T07:41:05.020Z,8.20
2022-11-09T07:43:33.552Z,8.20
2022-11-09T07:46:05.073Z,8.10
2022-11-09T07:48:33.657Z,8.10
2022-11-09T07:51:03.926Z,8.10
2022-11-09T07:53:32.126Z,8.20
2022-11-09T07:56:01.694Z,8.30
2022-11-09T07:58:30.454Z,8.30
2022-11-09T08:00:59.303Z,8.50
2022-11-09T08:03:27.972Z,8.50
2022-11-09T08:05:57.846Z,8.70
2022-11-09T08:08:27.691Z,8.80
2022-11-09T08:10:57.974Z,9.10
2022-11-09T08:13:26.338Z,9.30
2022-11-09T08:15:54.555Z,9.40
2022-11-09T08:18:24.178Z,9.40
2022-11-09T08:20:52.538Z,9.30
2022-11-09T08:23:22.043Z,9.10
2022-11-09T08:25:52.506Z,9.00
2022-11-09T08:28:21.459Z,8.90
2022-11-09T08:30:57.646Z,8.90
2022-11-09T08:33:26.502Z,8.80
2022-11-09T08:35:55.203Z,8.80
2022-11-09T08:38:23.982Z,8.80
2022-11-09T08:40:58.111Z,8.90
2022-11-09T08:43:26.639Z,8.90
2022-11-09T08:45:54.921Z,9.00
2022-11-09T08:48:23.212Z,9.00
2022-11-09T08:50:54.020Z,9.10
2022-11-09T08:53:23.015Z,9.10
2022-11-09T08:55:51.290Z,9.20
2022-11-09T08:58:21.609Z,9.30
2022-11-09T09:00:50.290Z,9.40
2022-11-09T09:03:18.520Z,9.40
2022-11-09T09:05:49.560Z,9.50
2022-11-09T09:08:22.096Z,9.60
2022-11-09T09:10:50.616Z,9.70
2022-11-09T09:13:22.861Z,9.80
2022-11-09T09:15:51.312Z,10.00
2022-11-09T09:18:19.813Z,10.20
2022-11-09T09:20:48.244Z,10.30
2022-11-09T09:23:17.114Z,10.50
2022-11-09T09:25:45.251Z,10.50
2022-11-09T09:28:13.480Z,10.60
2022-11-09T09:30:43.047Z,10.40
2022-11-09T09:33:11.991Z,10.40
2022-11-09T09:35:40.253Z,10.50
2022-11-09T09:38:08.397Z,10.40
2022-11-09T09:40:43.763Z,10.30
2022-11-09T09:43:19.063Z,10.40
2022-11-09T09:45:54.418Z,10.60
2022-11-09T09:48:32.458Z,10.80
2022-11-09T09:51:04.174Z,10.80
2022-11-09T09:53:36.591Z,10.80
2022-11-09T09:56:10.657Z,10.90
2022-11-09T09:58:44.651Z,10.80
2022-11-09T10:01:20.022Z,10.90
2022-11-09T10:03:48.389Z,11.10
2022-11-09T10:06:33.410Z,11.30
2022-11-09T10:09:08.306Z,11.40
2022-11-09T10:11:45.664Z,11.30
2022-11-09T10:14:40.531Z,11.30
2022-11-09T10:17:17.589Z,11.20
2022-11-09T10:20:04.723Z,11.20
2022-11-09T10:22:42.891Z,11.30
2022-11-09T10:25:32.254Z,11.40
2022-11-09T10:28:13.387Z,11.40
2022-11-09T10:30:41.993Z,11.10
2022-11-09T10:33:21.454Z,11.20
2022-11-09T10:35:56.670Z,11.30
2022-11-09T10:38:30.117Z,11.50
2022-11-09T10:41:05.683Z,11.70
2022-11-09T10:43:33.807Z,11.60
2022-11-09T10:46:05.009Z,11.50
2022-11-09T10:48:37.280Z,11.40
2022-11-09T10:51:06.021Z,11.40
2022-11-09T10:53:35.186Z,11.10
2022-11-09T10:56:20.419Z,11.20
2022-11-09T10:58:51.423Z,11.30
2022-11-09T11:01:21.643Z,11.20
2022-11-09T11:03:53.431Z,11.20
2022-11-09T11:06:31.661Z,11.00
2022-11-09T11:09:16.978Z,10.90
2022-11-09T11:11:45.183Z,11.10
2022-11-09T11:14:21.684Z,11.00
2022-11-09T11:16:53.270Z,10.90
2022-11-09T11:19:34.645Z,10.90
2022-11-09T11:22:23.905Z,10.70
2022-11-09T11:24:57.374Z,10.80
2022-11-09T11:27:30.752Z,10.70
2022-11-09T11:30:06.460Z,10.60
2022-11-09T11:32:34.666Z,10.40
2022-11-09T11:35:06.104Z,10.40
2022-11-09T11:37:48.502Z,10.30
2022-11-09T11:40:22.559Z,10.40
2022-11-09T11:43:16.462Z,10.40
2022-11-09T11:45:50.934Z,10.60
2022-11-09T11:48:46.350Z,10.70
2022-11-09T11:51:20.980Z,10.70
2022-11-09T11:54:01.463Z,10.70
2022-11-09T11:56:35.019Z,10.60
2022-11-09T11:59:29.722Z,10.60
2022-11-09T12:02:20.403Z,10.80
2022-11-09T12:05:08.900Z,10.70
2022-11-09T12:07:47.914Z,10.70
2022-11-09T12:10:31.389Z,10.70
2022-11-09T12:13:10.859Z,10.90
2022-11-09T12:15:53.367Z,11.20
2022-11-09T12:18:35.598Z,11.30
2022-11-09T12:21:16.872Z,11.40
2022-11-09T12:24:03.544Z,11.50
2022-11-09T12:26:59.620Z,11.40
2022-11-09T12:29:43.247Z,11.30
2022-11-09T12:32:19.378Z,11.20
2022-11-09T12:34:58.168Z,11.10
2022-11-09T12:37:30.584Z,11.00
2022-11-09T12:40:14.892Z,11.10
2022-11-09T12:42:47.004Z,11.00
2022-11-09T12:45:24.167Z,11.00
2022-11-09T12:47:55.347Z,10.90
2022-11-09T12:50:26.586Z,10.80
2022-11-09T12:52:55.176Z,10.70
2022-11-09T12:55:33.677Z,10.70
2022-11-09T12:58:01.978Z,10.80
2022-11-09T13:00:51.272Z,10.80
2022-11-09T13:03:26.836Z,10.80
2022-11-09T13:06:19.570Z,10.70
2022-11-09T13:08:59.656Z,10.60
2022-11-09T13:11:37.379Z,10.50
2022-11-09T13:14:30.355Z,10.40
2022-11-09T13:17:00.591Z,10.40
2022-11-09T13:19:51.436Z,10.30
2022-11-09T13:22:57.119Z,10.30
2022-11-09T13:25:51.093Z,10.30
2022-11-09T13:28:52.062Z,10.30
2022-11-09T13:32:03.326Z,10.20
2022-11-09T13:34:43.390Z,10.30
2022-11-09T13:37:51.345Z,10.20
2022-11-09T13:40:42.710Z,10.20
2022-11-09T13:43:18.803Z,10.10
2022-11-09T13:45:48.865Z,10.00
2022-11-09T13:48:34.580Z,9.90
2022-11-09T13:51:05.292Z,9.90
2022-11-09T13:53:53.037Z,9.90
2022-11-09T13:56:29.674Z,9.90
2022-11-09T13:59:03.727Z,9.90
2022-11-09T14:01:38.395Z,9.90
2022-11-09T14:04:25.093Z,9.90
2022-11-09T14:07:02.522Z,9.80
2022-11-09T14:09:39.890Z,9.80
2022-11-09T14:12:33.226Z,9.80
2022-11-09T14:15:21.459Z,9.80
2022-11-09T14:18:14.071Z,9.70
2022-11-09T14:20:51.908Z,9.70
2022-11-09T14:23:24.246Z,9.60
2022-11-09T14:25:52.498Z,9.60
2022-11-09T14:28:23.994Z,9.50
2022-11-09T14:30:52.327Z,9.50
2022-11-09T14:33:24.937Z,9.40
2022-11-09T14:36:00.226Z,9.40
2022-11-09T14:38:32.347Z,9.30
2022-11-09T14:41:01.345Z,9.30
2022-11-09T14:43:36.785Z,9.20
2022-11-09T14:46:06.754Z,9.20
2022-11-09T14:48:36.339Z,9.10
2022-11-09T14:51:08.006Z,9.10
2022-11-09T14:53:39.101Z,9.10
2022-11-09T14:56:11.083Z,9.00
2022-11-09T14:58:42.723Z,9.00
2022-11-09T15:01:21.678Z,8.90
2022-11-09T15:04:09.296Z,8.80
2022-11-09T15:06:47.260Z,8.80
2022-11-09T15:09:22.238Z,8.70
2022-11-09T15:11:51.013Z,8.50
2022-11-09T15:14:26.731Z,8.50
2022-11-09T15:17:01.694Z,8.40
2022-11-09T15:19:32.430Z,8.30
2022-11-09T15:22:03.341Z,8.20
2022-11-09T15:24:46.375Z,8.10
2022-11-09T15:27:32.224Z,8.10
2022-11-09T15:30:00.536Z,8.00
2022-11-09T15:32:34.076Z,8.00
2022-11-09T15:35:02.423Z,8.00
2022-11-09T15:37:47.888Z,8.00
2022-11-09T15:40:18.393Z,8.00
2022-11-09T15:42:47.241Z,8.00
2022-11-09T15:45:19.587Z,7.90
2022-11-09T15:47:52.849Z,7.80
2022-11-09T15:50:23.935Z,7.70
2022-11-09T15:52:54.120Z,7.80
2022-11-09T15:55:24.445Z,7.80
2022-11-09T15:57:53.712Z,7.80
2022-11-09T16:00:23.267Z,7.60
2022-11-09T16:02:57.577Z,7.40
2022-11-09T16:05:27.837Z,7.30
2022-11-09T16:07:58.055Z,7.20
2022-11-09T16:10:27.582Z,7.20
2022-11-09T16:12:56.987Z,7.20
2022-11-09T16:15:26.018Z,7.10
2022-11-09T16:17:54.454Z,7.00
2022-11-09T16:20:22.984Z,6.90
2022-11-09T16:22:51.238Z,6.90
2022-11-09T16:25:21.215Z,6.90
2022-11-09T16:27:51.293Z,6.80
2022-11-09T16:30:20.754Z,6.90
2022-11-09T16:32:48.983Z,7.00
2022-11-09T16:35:27.065Z,7.00
2022-11-09T16:37:56.058Z,7.00
2022-11-09T16:40:27.665Z,7.10
2022-11-09T16:42:56.392Z,7.10
2022-11-09T16:45:29.149Z,7.00
2022-11-09T16:48:03.462Z,6.90
2022-11-09T16:50:32.002Z,6.80
2022-11-09T16:53:00.201Z,6.80
2022-11-09T16:55:29.849Z,6.80
2022-11-09T16:57:58.208Z,6.70
2022-11-09T17:00:42.394Z,6.70
2022-11-09T17:03:15.354Z,6.80
2022-11-09T17:05:47.235Z,6.80
2022-11-09T17:08:15.472Z,6.90
2022-11-09T17:10:47.812Z,6.80
2022-11-09T17:13:16.243Z,6.80
2022-11-09T17:15:46.192Z,6.70
2022-11-09T17:18:18.814Z,6.70
2022-11-09T17:20:49.435Z,6.60
2022-11-09T17:23:19.681Z,6.70
2022-11-09T17:25:57.566Z,6.80
2022-11-09T17:28:25.819Z,6.80
2022-11-09T17:30:54.499Z,6.90
2022-11-09T17:33:25.954Z,7.00
2022-11-09T17:36:00.981Z,7.10
2022-11-09T17:38:30.170Z,7.10
2022-11-09T17:41:05.365Z,7.10
2022-11-09T17:43:37.011Z,7.10
2022-11-09T17:46:06.157Z,7.10
2022-11-09T17:48:34.929Z,7.10
2022-11-09T17:51:03.644Z,7.20
2022-11-09T17:53:32.403Z,7.20
2022-11-09T17:56:01.758Z,7.40
2022-11-09T17:58:39.765Z,7.50
2022-11-09T18:01:09.084Z,7.70
2022-11-09T18:03:39.159Z,7.80
2022-11-09T18:06:12.783Z,7.90
2022-11-09T18:08:41.404Z,8.00
2022-11-09T18:11:12.223Z,8.10
2022-11-09T18:13:43.615Z,8.20
2022-11-09T18:16:17.474Z,8.30
2022-11-09T18:18:46.597Z,8.30
2022-11-09T18:21:20.379Z,8.40
2022-11-09T18:23:54.413Z,8.40
2022-11-09T18:26:25.669Z,8.40
2022-11-09T18:28:57.670Z,8.40
2022-11-09T18:31:25.839Z,8.30
2022-11-09T18:33:54.398Z,8.30
2022-11-09T18:36:23.600Z,8.40
2022-11-09T18:38:52.259Z,8.40
2022-11-09T18:41:22.981Z,8.50
2022-11-09T18:44:01.045Z,8.50
2022-11-09T18:46:45.435Z,8.60
2022-11-09T18:49:20.852Z,8.70
2022-11-09T18:51:49.242Z,8.70
2022-11-09T18:54:20.842Z,8.70
2022-11-09T18:56:49.155Z,8.80
2022-11-09T18:59:18.930Z,8.90
2022-11-09T19:01:59.759Z,8.80
2022-11-09T19:04:43.342Z,8.80
2022-11-09T19:07:27.267Z,8.80
2022-11-09T19:10:01.665Z,8.80
2022-11-09T19:12:48.092Z,8.70
2022-11-09T19:15:26.894Z,8.70
2022-11-09T19:18:10.746Z,8.80
2022-11-09T19:20:48.385Z,8.80
2022-11-09T19:23:17.599Z,8.80
2022-11-09T19:25:45.893Z,8.80
2022-11-09T19:28:14.155Z,8.80
2022-11-09T19:30:47.612Z,8.80
2022-11-09T19:33:23.122Z,8.90
2022-11-09T19:36:23.214Z,8.80
2022-11-09T19:38:49.773Z,8.80
2022-11-09T19:41:18.105Z,8.90
2022-11-09T19:43:57.146Z,8.90
2022-11-09T19:46:31.679Z,8.90
2022-11-09T19:49:00.046Z,8.90
2022-11-09T19:51:29.414Z,8.80
2022-11-09T19:54:11.022Z,8.90
2022-11-09T19:56:39.299Z,8.90
2022-11-09T19:59:14.340Z,8.90
2022-11-09T20:01:44.041Z,8.90
2022-11-09T20:04:18.574Z,8.80
2022-11-09T20:06:49.628Z,8.80
2022-11-09T20:09:20.725Z,8.80
2022-11-09T20:14:38.331Z,8.70
2022-11-09T20:17:07.974Z,8.70
2022-11-09T20:19:36.249Z,8.60
2022-11-09T20:22:07.609Z,8.50
2022-11-09T20:24:36.540Z,8.50
2022-11-09T20:27:05.056Z,8.40
2022-11-09T20:29:34.809Z,8.40
2022-11-09T20:32:03.184Z,8.40
2022-11-09T20:34:32.882Z,8.40
2022-11-09T20:37:01.172Z,8.40
2022-11-09T20:39:32.232Z,8.40
2022-11-09T20:42:00.689Z,8.40
2022-11-09T20:44:28.914Z,8.50
2022-11-09T20:46:57.203Z,8.50
2022-11-09T20:49:25.425Z,8.50
2022-11-09T20:51:55.509Z,8.40
2022-11-09T20:54:23.782Z,8.40
2022-11-09T20:56:54.839Z,8.40
2022-11-09T20:59:23.090Z,8.40
2022-11-09T21:01:51.369Z,8.30
2022-11-09T21:04:19.574Z,8.30
2022-11-09T21:06:48.126Z,8.30
2022-11-09T21:09:17.973Z,8.30
2022-11-09T21:12:03.651Z,8.20
2022-11-09T21:14:32.206Z,8.20
2022-11-09T21:17:03.028Z,8.20
2022-11-09T21:19:31.360Z,8.20
2022-11-09T21:21:59.693Z,8.20
2022-11-09T21:24:47.250Z,8.20
2022-11-09T21:27:38.742Z,8.10
2022-11-09T21:30:08.081Z,8.10
2022-11-09T21:32:36.319Z,8.10
2022-11-09T21:35:04.825Z,8.10
2022-11-09T21:37:33.100Z,8.10
2022-11-09T21:40:02.764Z,8.10
2022-11-09T21:42:31.121Z,8.10
2022-11-09T21:44:59.412Z,8.20
2022-11-09T21:47:27.682Z,8.20
2022-11-09T21:49:56.027Z,8.20
2022-11-09T21:52:24.255Z,8.20
2022-11-09T21:54:52.590Z,8.20
2022-11-09T21:57:22.208Z,8.20
2022-11-09T21:59:50.586Z,8.20
2022-11-09T22:02:18.933Z,8.20
2022-11-09T22:04:47.147Z,8.20
2022-11-09T22:07:15.576Z,8.10
2022-11-09T22:10:08.685Z,8.10
2022-11-09T22:12:50.519Z,8.00
2022-11-09T22:15:36.311Z,8.00
2022-11-09T22:18:05.984Z,8.10
2022-11-09T22:20:51.472Z,8.10
2022-11-09T22:23:22.845Z,8.10
2022-11-09T22:25:51.510Z,8.10
2022-11-09T22:28:21.220Z,8.10
2022-11-09T22:30:52.590Z,8.10
2022-11-09T22:33:26.903Z,8.10
2022-11-09T22:35:56.263Z,8.10
2022-11-09T22:38:24.559Z,8.10
2022-11-09T22:40:52.904Z,8.10
2022-11-09T22:43:23.053Z,8.10
2022-11-09T22:45:51.550Z,8.10
2022-11-09T22:48:19.888Z,8.10
2022-11-09T22:50:48.167Z,8.10
2022-11-09T22:53:16.494Z,8.20
2022-11-09T22:55:44.698Z,8.20
2022-11-09T22:58:13.102Z,8.30
2022-11-09T23:00:43.012Z,8.30
2022-11-09T23:03:11.350Z,8.30
2022-11-09T23:05:39.678Z,8.30
2022-11-09T23:08:08.201Z,8.30
2022-11-09T23:10:36.628Z,8.30
2022-11-09T23:13:05.592Z,8.30
2022-11-09T23:15:34.114Z,8.40
2022-11-09T23:18:21.275Z,8.30
2022-11-09T23:20:49.639Z,8.30
2022-11-09T23:23:17.978Z,8.30
2022-11-09T23:25:55.033Z,8.30
2022-11-09T23:28:23.471Z,8.30
2022-11-09T23:30:52.127Z,8.30
2022-11-09T23:33:22.091Z,8.30
2022-11-09T23:35:50.547Z,8.20
2022-11-09T23:38:18.750Z,8.20
2022-11-09T23:40:47.722Z,8.20
2022-11-09T23:43:17.101Z,8.20
2022-11-09T23:45:45.512Z,8.20
2022-11-09T23:48:18.492Z,8.20
2022-11-09T23:50:49.252Z,8.20
2022-11-09T23:53:17.806Z,8.10
2022-11-09T23:55:46.463Z,8.20
2022-11-09T23:58:14.725Z,8.10
